Time;durP1;ratioP1;P1;durP2;ratioP2;P2;SDS_P1;SDS_P2;PMS_P1;PMS_P2;Temp;Humidity;BMP_temperature;BMP_pressure;BME280_temperature;BME280_humidity;BME280_pressure;Samples;Min_cycle;Max_cycle;Signal;HPM_P1;HPM_P2
2023/09/12 00:01:56;;;;;;;;;;;;;;;19.83;96.72;101236.81;5063899;28;20066;-58
2023/09/12 00:04:21;;;;;;;;;;;;;;;19.81;99.28;101243.88;5065332;28;20198;-59
2023/09/12 00:06:46;;;;;;;;;;;;;;;19.76;99.60;101232.44;5059930;28;19913;-58
2023/09/12 00:09:12;;;;;;;;;;;;;;;19.64;98.14;101239.56;5062512;28;19984;-59
2023/09/12 00:11:37;;;;;;;;;;;;;;;19.58;98.27;101234.34;5061467;28;19920;-59
2023/09/12 00:14:02;;;;;;;;;;;;;;;19.57;98.45;101232.59;5063965;28;19963;-58
2023/09/12 00:16:28;;;;;;;;;;;;;;;19.59;97.95;101230.78;5064803;28;19929;-58
2023/09/12 00:18:53;;;;;;;;;;;;;;;19.53;99.15;101235.25;5060723;28;20245;-59
2023/09/12 00:21:18;;;;;;;;;;;;;;;19.54;98.72;101235.25;5050844;28;20094;-58
2023/09/12 00:23:43;;;;;;;;;;;;;;;19.50;98.34;101241.44;5050912;28;19909;-58
2023/09/12 00:26:09;;;;;;;;;;;;;;;19.42;98.76;101236.22;5045140;28;20028;-58
2023/09/12 00:28:34;;;;;;;;;;;;;;;19.43;99.61;101234.44;5058890;28;19944;-60
2023/09/12 00:30:59;;;;;;;;;;;;;;;19.45;99.51;101236.19;5058793;28;19988;-60
2023/09/12 00:33:24;;;;;;;;;;;;;;;19.51;99.73;101237.03;5044897;28;19955;-60
2023/09/12 00:35:49;;;;;;;;;;;;;;;19.53;99.50;101236.13;5059983;28;19913;-60
2023/09/12 00:38:15;;;;;;;;;;;;;;;19.56;99.05;101246.69;5062269;28;19932;-60
2023/09/12 00:40:40;;;;;;;;;;;;;;;19.59;97.75;101236.06;5064739;28;19951;-61
2023/09/12 00:43:05;;;;;;;;;;;;;;;19.49;97.82;101236.16;5054571;28;19921;-60
2023/09/12 00:45:30;;;;;;;;;;;;;;;19.31;98.38;101238.06;5044874;28;19909;-61
2023/09/12 00:47:57;;;;;;;;;;;;;;;19.24;99.85;101237.19;5031178;28;20059;-60
2023/09/12 00:50:27;;;;;;;;;;;;;;;19.21;99.57;101234.59;5053475;28;19919;-60
2023/09/12 00:52:54;;;;;;;;;;;;;;;19.24;99.75;101226.63;5057079;28;19913;-60
2023/09/12 00:55:19;;;;;;;;;;;;;;;19.29;99.76;101229.25;5064875;28;20166;-60
2023/09/12 00:57:45;;;;;;;;;;;;;;;19.33;99.77;101228.34;5055208;28;19913;-60
2023/09/12 01:00:12;;;;;;;;;;;;;;;19.38;99.25;101230.94;5062766;28;19957;-60
2023/09/12 01:02:41;;;;;;;;;;;;;;;19.40;99.13;101229.19;5062942;28;19920;-60
2023/09/12 01:05:07;;;;;;;;;;;;;;;19.40;98.62;101221.25;5048593;28;19913;-60
2023/09/12 01:07:32;;;;;;;;;;;;;;;19.44;98.64;101226.50;5050379;28;19992;-60
2023/09/12 01:09:58;;;;;;;;;;;;;;;19.43;98.28;101226.50;5042888;28;19936;-61
2023/09/12 01:12:23;;;;;;;;;;;;;;;19.34;97.90;101214.25;5049949;28;20138;-60
2023/09/12 01:14:49;;;;;;;;;;;;;;;19.29;98.22;101216.03;5053797;28;19924;-60
2023/09/12 01:17:14;;;;;;;;;;;;;;;19.29;98.25;101216.94;5047620;28;19913;-61
2023/09/12 01:19:39;;;;;;;;;;;;;;;19.28;98.03;101219.59;5047890;28;20062;-60
2023/09/12 01:22:17;;;;;;;;;;;;;;;19.30;97.83;101217.78;5054716;28;19912;-60
2023/09/12 01:24:42;;;;;;;;;;;;;;;19.31;97.84;101219.56;5064089;28;20043;-60
2023/09/12 01:27:10;;;;;;;;;;;;;;;19.28;97.79;101215.16;5049106;28;20018;-60
2023/09/12 01:29:38;;;;;;;;;;;;;;;19.25;97.81;101220.47;5054267;28;19990;-60
2023/09/12 01:32:04;;;;;;;;;;;;;;;19.25;97.74;101219.59;5057163;28;19948;-60
2023/09/12 01:34:32;;;;;;;;;;;;;;;19.26;97.78;101213.41;5062604;28;19936;-60
2023/09/12 01:36:57;;;;;;;;;;;;;;;19.29;97.38;101221.31;5056420;28;20131;-60
2023/09/12 01:39:25;;;;;;;;;;;;;;;19.26;97.11;101206.38;5043673;28;20163;-60
2023/09/12 01:41:52;;;;;;;;;;;;;;;19.27;96.83;101207.25;5053033;28;20159;-60
2023/09/12 01:44:18;;;;;;;;;;;;;;;19.25;96.78;101212.53;5063011;28;20004;-60
2023/09/12 01:46:44;;;;;;;;;;;;;;;19.19;96.92;101207.31;5058390;28;20139;-60
2023/09/12 01:49:10;;;;;;;;;;;;;;;19.14;97.07;101222.28;5058147;28;19991;-60
2023/09/12 01:51:39;;;;;;;;;;;;;;;19.12;97.23;101208.22;5057075;28;19908;-60
2023/09/12 01:54:06;;;;;;;;;;;;;;;19.10;97.28;101216.16;5063580;28;19913;-60
2023/09/12 01:56:32;;;;;;;;;;;;;;;19.11;97.10;101217.91;5057634;28;19920;-61
2023/09/12 01:58:58;;;;;;;;;;;;;;;19.11;96.90;101209.09;5059400;28;20064;-60
2023/09/12 02:01:26;;;;;;;;;;;;;;;19.04;96.53;101215.31;5062371;28;20193;-60
2023/09/12 02:03:52;;;;;;;;;;;;;;;18.92;96.85;101214.50;5053778;28;19930;-61
2023/09/12 02:06:17;;;;;;;;;;;;;;;18.88;97.12;101212.75;5048535;28;20015;-60
2023/09/12 02:08:42;;;;;;;;;;;;;;;18.87;97.12;101213.66;5056543;28;19963;-60
2023/09/12 02:11:07;;;;;;;;;;;;;;;18.82;96.57;101199.53;5061581;28;19936;-60
2023/09/12 02:13:32;;;;;;;;;;;;;;;18.83;97.04;101200.41;5059489;28;19947;-60
2023/09/12 02:15:58;;;;;;;;;;;;;;;18.82;96.90;101203.97;5054150;28;19913;-60
2023/09/12 02:18:23;;;;;;;;;;;;;;;18.81;96.73;101200.41;5025468;28;20074;-60
2023/09/12 02:20:49;;;;;;;;;;;;;;;18.81;96.84;101203.06;5043131;28;19956;-60
2023/09/12 02:23:17;;;;;;;;;;;;;;;18.81;96.53;101203.06;5059002;28;19920;-60
2023/09/12 02:25:42;;;;;;;;;;;;;;;18.82;96.66;101203.97;5061682;28;19912;-60
2023/09/12 02:28:07;;;;;;;;;;;;;;;18.80;96.18;101205.72;5045488;28;19969;-60
2023/09/12 02:30:33;;;;;;;;;;;;;;;18.65;96.17;101204.88;5045971;28;20204;-60
2023/09/12 02:32:58;;;;;;;;;;;;;;;18.52;96.81;101206.69;5060184;28;19913;-60
2023/09/12 02:35:23;;;;;;;;;;;;;;;18.43;97.26;101212.03;5062331;28;19928;-60
2023/09/12 02:37:48;;;;;;;;;;;;;;;18.38;97.63;101206.75;5062848;28;20086;-60
2023/09/12 02:40:14;;;;;;;;;;;;;;;18.39;97.94;101212.91;5060028;28;20089;-60
2023/09/12 02:42:42;;;;;;;;;;;;;;;18.38;97.61;101213.81;5061463;28;19927;-60
2023/09/12 02:45:08;;;;;;;;;;;;;;;18.37;97.25;101207.63;5045420;28;19950;-60
2023/09/12 02:47:33;;;;;;;;;;;;;;;18.35;97.38;101208.50;5060070;28;20121;-60
2023/09/12 02:49:58;;;;;;;;;;;;;;;18.33;97.29;101205.88;5059474;28;20157;-60
2023/09/12 02:52:23;;;;;;;;;;;;;;;18.30;97.89;101205.91;5062216;28;19915;-60
2023/09/12 02:54:49;;;;;;;;;;;;;;;18.28;97.91;101204.13;5061477;28;19913;-60
2023/09/12 02:57:14;;;;;;;;;;;;;;;18.22;98.02;101198.00;5061872;28;20106;-60
2023/09/12 02:59:39;;;;;;;;;;;;;;;18.22;97.65;101200.66;5062674;28;19916;-60
2023/09/12 03:02:04;;;;;;;;;;;;;;;18.23;97.65;101207.69;5057440;28;19913;-60
2023/09/12 03:04:29;;;;;;;;;;;;;;;18.21;98.40;101204.16;5060245;28;19919;-60
2023/09/12 03:06:55;;;;;;;;;;;;;;;18.15;98.58;101209.47;5052178;28;20086;-60
2023/09/12 03:09:22;;;;;;;;;;;;;;;18.08;98.43;101215.63;5043322;28;20300;-60
2023/09/12 03:11:47;;;;;;;;;;;;;;;18.03;98.43;101217.38;5049076;28;19960;-60
2023/09/12 03:14:12;;;;;;;;;;;;;;;18.00;98.70;101206.84;5059349;28;19913;-60
2023/09/12 03:16:38;;;;;;;;;;;;;;;17.95;99.47;101213.88;5066504;28;19913;-60
2023/09/12 03:19:03;;;;;;;;;;;;;;;17.87;98.82;101219.09;5066150;28;19986;-60
2023/09/12 03:21:29;;;;;;;;;;;;;;;17.74;99.21;101207.69;5064932;28;19920;-60
2023/09/12 03:23:56;;;;;;;;;;;;;;;17.67;99.25;101205.94;5065425;28;19929;-60
2023/09/12 03:26:22;;;;;;;;;;;;;;;17.65;99.97;101197.16;5064600;28;19935;-60
2023/09/12 03:28:48;;;;;;;;;;;;;;;17.70;99.83;101193.66;5054592;28;19945;-60
2023/09/12 03:31:16;;;;;;;;;;;;;;;17.73;99.92;101192.78;5058320;28;20147;-60
2023/09/12 03:33:42;;;;;;;;;;;;;;;17.75;99.31;101185.72;5048333;28;19909;-60
2023/09/12 03:36:08;;;;;;;;;;;;;;;17.67;98.48;101203.28;5065309;28;19917;-60
2023/09/12 03:38:36;;;;;;;;;;;;;;;17.58;99.18;101192.78;5065366;28;19909;-60
2023/09/12 03:41:01;;;;;;;;;;;;;;;17.58;99.20;101195.41;5064054;28;19946;-60
2023/09/12 03:43:27;;;;;;;;;;;;;;;17.62;99.70;101195.41;5063755;28;19948;-60
2023/09/12 03:45:52;;;;;;;;;;;;;;;17.64;99.43;101193.66;5049346;28;19916;-60
2023/09/12 03:48:17;;;;;;;;;;;;;;;17.68;99.39;101194.53;5053640;28;20012;-60
2023/09/12 03:50:43;;;;;;;;;;;;;;;17.73;99.46;101192.78;5062211;28;19912;-60
2023/09/12 03:53:08;;;;;;;;;;;;;;;17.75;99.17;101198.91;5055442;28;19913;-60
2023/09/12 03:55:33;;;;;;;;;;;;;;;17.75;99.00;101200.69;5059110;28;19913;-60
2023/09/12 03:57:58;;;;;;;;;;;;;;;17.69;98.92;101202.44;5058516;28;19952;-60
2023/09/12 04:00:23;;;;;;;;;;;;;;;17.67;99.21;101201.56;5064227;28;20003;-60
2023/09/12 04:02:49;;;;;;;;;;;;;;;17.68;99.16;101191.88;5058283;28;19959;-60
2023/09/12 04:05:14;;;;;;;;;;;;;;;17.67;99.20;101193.66;5045760;28;19909;-60
2023/09/12 04:07:39;;;;;;;;;;;;;;;17.68;99.47;101190.16;5060302;28;19913;-60
2023/09/12 04:10:05;;;;;;;;;;;;;;;17.67;99.53;101190.13;5064076;28;19921;-60
2023/09/12 04:12:30;;;;;;;;;;;;;;;17.67;99.68;101187.47;5059803;28;19989;-60
2023/09/12 04:14:55;;;;;;;;;;;;;;;17.69;99.07;101186.63;5045452;28;19909;-60
2023/09/12 04:17:20;;;;;;;;;;;;;;;17.72;99.44;101185.75;5050909;28;19920;-60
2023/09/12 04:19:46;;;;;;;;;;;;;;;17.72;99.64;101181.34;5051817;28;20003;-60
2023/09/12 04:22:11;;;;;;;;;;;;;;;17.73;99.77;101185.75;5064585;28;19956;-60
2023/09/12 04:24:36;;;;;;;;;;;;;;;17.74;99.62;101186.59;5065301;28;19933;-60
2023/09/12 04:27:01;;;;;;;;;;;;;;;17.73;99.74;101183.09;5064391;28;20073;-60
2023/09/12 04:29:31;;;;;;;;;;;;;;;17.74;100.00;101176.06;5061606;28;19913;-60
2023/09/12 04:31:59;;;;;;;;;;;;;;;17.76;100.00;101176.97;5064257;28;20194;-60
2023/09/12 04:34:25;;;;;;;;;;;;;;;17.78;100.00;101185.72;5062237;28;19913;-60
2023/09/12 04:36:50;;;;;;;;;;;;;;;17.79;99.95;101190.13;5063820;28;20078;-60
2023/09/12 04:39:15;;;;;;;;;;;;;;;17.80;100.00;101194.53;5062269;28;19913;-60
2023/09/12 04:41:40;;;;;;;;;;;;;;;17.80;100.00;101202.44;5063401;28;19920;-60
2023/09/12 04:44:05;;;;;;;;;;;;;;;17.78;99.99;101193.63;5057491;28;20079;-60
2023/09/12 04:46:31;;;;;;;;;;;;;;;17.77;99.72;101191.00;5044904;28;19932;-60
2023/09/12 04:48:58;;;;;;;;;;;;;;;17.72;100.00;101201.56;5052748;28;20143;-60
2023/09/12 04:51:27;;;;;;;;;;;;;;;17.68;100.00;101199.78;5063664;28;20296;-60
2023/09/12 04:53:52;;;;;;;;;;;;;;;17.64;100.00;101192.75;5064696;28;19952;-60
2023/09/12 04:56:17;;;;;;;;;;;;;;;17.61;100.00;101192.75;5053677;28;19913;-60
2023/09/12 04:58:42;;;;;;;;;;;;;;;17.59;100.00;101197.16;5056804;28;19913;-59
2023/09/12 05:01:09;;;;;;;;;;;;;;;17.56;100.00;101198.91;5055856;28;19909;-60
2023/09/12 05:03:34;;;;;;;;;;;;;;;17.57;100.00;101202.44;5031338;28;19956;-60
2023/09/12 05:05:59;;;;;;;;;;;;;;;17.61;100.00;101205.94;5046649;28;20278;-60
2023/09/12 05:08:24;;;;;;;;;;;;;;;17.62;100.00;101210.34;5062755;28;20237;-60
2023/09/12 05:10:50;;;;;;;;;;;;;;;17.62;100.00;101210.34;5063613;28;20299;-60
2023/09/12 05:13:15;;;;;;;;;;;;;;;17.63;100.00;101205.06;5062636;28;19909;-60
2023/09/12 05:15:41;;;;;;;;;;;;;;;17.67;100.00;101209.47;5054645;28;19912;-60
2023/09/12 05:18:06;;;;;;;;;;;;;;;17.71;100.00;101218.22;5061837;28;20066;-60
2023/09/12 05:20:32;;;;;;;;;;;;;;;17.71;100.00;101213.88;5056403;28;19913;-60
2023/09/12 05:22:57;;;;;;;;;;;;;;;17.77;100.00;101206.81;5064106;28;19909;-60
2023/09/12 05:25:22;;;;;;;;;;;;;;;17.74;100.00;101202.41;5063433;28;20135;-60
2023/09/12 05:27:47;;;;;;;;;;;;;;;17.72;100.00;101201.56;5063354;28;19935;-60
2023/09/12 05:30:12;;;;;;;;;;;;;;;17.69;100.00;101198.91;5056948;28;19940;-60
2023/09/12 05:32:38;;;;;;;;;;;;;;;17.69;100.00;101189.25;5053144;28;20003;-60
2023/09/12 05:35:03;;;;;;;;;;;;;;;17.73;100.00;101185.75;5063072;28;19913;-60
2023/09/12 05:37:28;;;;;;;;;;;;;;;17.77;100.00;101170.81;5060346;28;19936;-60
2023/09/12 05:39:54;;;;;;;;;;;;;;;17.80;100.00;101177.81;5060171;28;20040;-61
2023/09/12 05:42:20;;;;;;;;;;;;;;;17.80;100.00;101176.06;5062162;28;19913;-60
2023/09/12 05:44:49;;;;;;;;;;;;;;;17.79;100.00;101171.69;5049972;28;19920;-60
2023/09/12 05:47:14;;;;;;;;;;;;;;;17.79;100.00;101184.00;5055898;28;19913;-60
2023/09/12 05:49:40;;;;;;;;;;;;;;;17.80;100.00;101191.00;5060681;28;19983;-60
2023/09/12 05:52:05;;;;;;;;;;;;;;;17.80;100.00;101191.91;5059175;28;19951;-60
2023/09/12 05:54:30;;;;;;;;;;;;;;;17.82;100.00;101195.41;5054906;28;20059;-60
2023/09/12 05:56:56;;;;;;;;;;;;;;;17.85;100.00;101198.03;5054595;28;20089;-60
2023/09/12 05:59:21;;;;;;;;;;;;;;;17.89;100.00;101194.50;5062491;28;19963;-60
2023/09/12 06:01:46;;;;;;;;;;;;;;;17.92;100.00;101193.66;5062706;28;19917;-60
2023/09/12 06:04:11;;;;;;;;;;;;;;;17.93;100.00;101194.53;5062251;28;20011;-60
2023/09/12 06:06:36;;;;;;;;;;;;;;;17.91;100.00;101197.19;5055618;28;20143;-60
2023/09/12 06:09:03;;;;;;;;;;;;;;;17.88;100.00;101203.28;5043155;28;19909;-60
2023/09/12 06:11:28;;;;;;;;;;;;;;;17.89;100.00;101210.31;5026385;28;20094;-60
2023/09/12 06:13:53;;;;;;;;;;;;;;;17.88;100.00;101212.97;5063302;28;19913;-60
2023/09/12 06:16:19;;;;;;;;;;;;;;;17.87;100.00;101211.19;5062144;28;19925;-60
2023/09/12 06:18:44;;;;;;;;;;;;;;;17.86;100.00;101207.69;5061445;28;19913;-60
2023/09/12 06:21:09;;;;;;;;;;;;;;;17.89;100.00;101214.72;5058462;28;19972;-59
2023/09/12 06:23:35;;;;;;;;;;;;;;;17.93;100.00;101213.88;5060247;28;19963;-60
2023/09/12 06:26:00;;;;;;;;;;;;;;;17.95;100.00;101216.53;5062526;28;19916;-60
2023/09/12 06:28:28;;;;;;;;;;;;;;;17.96;100.00;101216.53;5058650;28;19913;-60
2023/09/12 06:30:54;;;;;;;;;;;;;;;17.98;100.00;101209.47;5049893;28;19924;-58
2023/09/12 06:33:19;;;;;;;;;;;;;;;18.00;100.00;101206.84;5044976;28;19913;-60
2023/09/12 06:35:48;;;;;;;;;;;;;;;18.00;100.00;101206.84;5059593;28;19909;-60
2023/09/12 06:38:13;;;;;;;;;;;;;;;17.96;100.00;101215.63;5055573;28;19955;-60
2023/09/12 06:40:38;;;;;;;;;;;;;;;17.92;100.00;101216.53;5047218;28;19925;-60
2023/09/12 06:43:03;;;;;;;;;;;;;;;17.86;100.00;101223.50;5063076;28;19948;-60
2023/09/12 06:45:30;;;;;;;;;;;;;;;17.85;100.00;101224.38;5055373;28;20226;-60
2023/09/12 06:47:55;;;;;;;;;;;;;;;17.89;100.00;101231.41;5054081;28;19913;-61
2023/09/12 06:50:20;;;;;;;;;;;;;;;17.89;100.00;101230.56;5063873;28;20095;-60
2023/09/12 06:52:46;;;;;;;;;;;;;;;17.88;100.00;101232.28;5058229;28;19913;-60
2023/09/12 06:55:11;;;;;;;;;;;;;;;17.88;100.00;101226.16;5052274;28;19909;-60
2023/09/12 06:57:36;;;;;;;;;;;;;;;17.93;100.00;101232.34;5049275;28;19913;-60
2023/09/12 07:00:06;;;;;;;;;;;;;;;17.95;100.00;101227.94;5064044;28;19932;-61
2023/09/12 07:02:40;;;;;;;;;;;;;;;17.98;100.00;101232.34;5063750;28;20151;-60
2023/09/12 07:05:06;;;;;;;;;;;;;;;18.02;100.00;101236.72;5053269;28;19912;-60
2023/09/12 07:07:32;;;;;;;;;;;;;;;18.03;100.00;101228.81;5055869;28;19953;-60
2023/09/12 07:09:59;;;;;;;;;;;;;;;18.08;100.00;101226.16;5056083;28;20022;-60
2023/09/12 07:12:24;;;;;;;;;;;;;;;18.12;100.00;101225.28;5062393;28;19962;-60
2023/09/12 07:14:50;;;;;;;;;;;;;;;18.16;100.00;101234.97;5061835;28;20097;-60
2023/09/12 07:17:16;;;;;;;;;;;;;;;18.23;100.00;101234.06;5032434;28;19920;-60
2023/09/12 07:19:41;;;;;;;;;;;;;;;18.31;100.00;101238.44;5060468;28;19933;-60
2023/09/12 07:22:06;;;;;;;;;;;;;;;18.32;100.00;101235.81;5063733;28;19935;-60
2023/09/12 07:24:31;;;;;;;;;;;;;;;18.29;100.00;101232.28;5060465;28;19933;-60
2023/09/12 07:26:58;;;;;;;;;;;;;;;18.27;100.00;101234.06;5046493;28;19909;-59
2023/09/12 07:29:23;;;;;;;;;;;;;;;18.28;100.00;101236.69;5056257;28;19919;-60
2023/09/12 07:31:51;;;;;;;;;;;;;;;18.32;100.00;101240.19;5062592;28;20062;-60
2023/09/12 07:34:16;;;;;;;;;;;;;;;18.35;100.00;101240.16;5037037;28;19929;-60
2023/09/12 07:36:41;;;;;;;;;;;;;;;18.38;100.00;101250.75;5065482;28;20139;-60
2023/09/12 07:39:07;;;;;;;;;;;;;;;18.35;100.00;101250.72;5065946;28;19915;-60
2023/09/12 07:41:32;;;;;;;;;;;;;;;18.36;100.00;101248.09;5054441;28;19944;-60
2023/09/12 07:43:57;;;;;;;;;;;;;;;18.36;100.00;101247.22;5063372;28;19950;-60
2023/09/12 07:46:22;;;;;;;;;;;;;;;18.32;100.00;101237.53;5064489;28;19912;-59
2023/09/12 07:48:47;;;;;;;;;;;;;;;18.34;100.00;101243.72;5064875;28;19913;-60
2023/09/12 07:51:14;;;;;;;;;;;;;;;18.39;100.00;101242.81;5061056;28;19972;-60
2023/09/12 07:53:39;;;;;;;;;;;;;;;18.42;100.00;101237.53;5065126;28;19916;-60
2023/09/12 07:56:05;;;;;;;;;;;;;;;18.41;100.00;101241.03;5065317;28;19940;-59
2023/09/12 07:58:30;;;;;;;;;;;;;;;18.50;100.00;101240.16;5062464;28;19928;-59
2023/09/12 08:00:55;;;;;;;;;;;;;;;18.56;100.00;101242.75;5064695;28;19913;-59
2023/09/12 08:03:20;;;;;;;;;;;;;;;18.64;100.00;101241.84;5065311;28;19925;-60
2023/09/12 08:05:54;;;;;;;;;;;;;;;18.69;100.00;101242.72;5038497;28;20142;-59
2023/09/12 08:08:19;;;;;;;;;;;;;;;18.76;100.00;101237.41;5064691;28;19931;-59
2023/09/12 08:10:46;;;;;;;;;;;;;;;18.89;100.00;101243.56;5057060;28;19945;-60
2023/09/12 08:13:11;;;;;;;;;;;;;;;19.07;100.00;101257.56;5049883;28;19909;-60
2023/09/12 08:15:36;;;;;;;;;;;;;;;19.20;100.00;101261.88;5045594;28;19919;-59
2023/09/12 08:18:01;;;;;;;;;;;;;;;19.35;100.00;101271.50;5052387;28;19967;-59
2023/09/12 08:20:26;;;;;;;;;;;;;;;19.51;100.00;101281.97;5050769;28;20155;-60
2023/09/12 08:22:52;;;;;;;;;;;;;;;19.65;100.00;101280.09;5062752;28;19912;-59
2023/09/12 08:25:18;;;;;;;;;;;;;;;19.74;100.00;101274.75;5058056;28;19920;-59
2023/09/12 08:27:43;;;;;;;;;;;;;;;19.85;100.00;101273.84;5054105;28;19959;-60
2023/09/12 08:30:09;;;;;;;;;;;;;;;19.89;100.00;101283.50;5051926;28;19914;-60
2023/09/12 08:32:34;;;;;;;;;;;;;;;19.92;100.00;101281.69;5062909;28;21091;-59
2023/09/12 08:34:59;;;;;;;;;;;;;;;20.00;100.00;101291.34;5053580;28;19943;-60
2023/09/12 08:37:24;;;;;;;;;;;;;;;20.08;100.00;101300.09;5047635;28;20209;-60
2023/09/12 08:39:49;;;;;;;;;;;;;;;20.11;100.00;101300.06;5060780;28;19913;-59
2023/09/12 08:42:16;;;;;;;;;;;;;;;20.15;100.00;101300.00;5057088;28;19919;-60
2023/09/12 08:44:41;;;;;;;;;;;;;;;20.19;100.00;101305.28;5053552;28;19913;-60
2023/09/12 08:47:07;;;;;;;;;;;;;;;20.20;100.00;101301.75;5058689;28;20082;-60
2023/09/12 08:49:34;;;;;;;;;;;;;;;20.22;100.00;101292.91;5053379;28;19919;-59
2023/09/12 08:51:59;;;;;;;;;;;;;;;20.25;100.00;101297.31;5058674;28;19920;-60
2023/09/12 08:54:25;;;;;;;;;;;;;;;20.28;100.00;101295.50;5064708;28;19908;-59
2023/09/12 08:56:50;;;;;;;;;;;;;;;20.29;100.00;101297.25;5050485;28;19910;-59
2023/09/12 08:59:16;;;;;;;;;;;;;;;20.29;100.00;101296.34;5057498;28;19913;-59
2023/09/12 09:01:42;;;;;;;;;;;;;;;20.31;100.00;101295.47;5055196;28;20203;-60
2023/09/12 09:04:07;;;;;;;;;;;;;;;20.34;100.00;101294.56;5064203;28;20142;-59
2023/09/12 09:06:37;;;;;;;;;;;;;;;20.39;100.00;101306.00;5057799;28;19919;-59
2023/09/12 09:09:04;;;;;;;;;;;;;;;20.46;100.00;101312.94;5057768;28;19929;-59
2023/09/12 09:11:29;;;;;;;;;;;;;;;20.54;100.00;101306.69;5063001;28;19913;-59
2023/09/12 09:13:55;;;;;;;;;;;;;;;20.62;100.00;101304.84;5059972;28;19913;-59
2023/09/12 09:16:21;;;;;;;;;;;;;;;20.79;100.00;101299.41;5062779;28;20143;-59
2023/09/12 09:18:53;;;;;;;;;;;;;;;20.95;100.00;101282.44;5057156;28;20003;-59
2023/09/12 09:21:25;;;;;;;;;;;;;;;21.17;100.00;101269.81;5043248;28;19972;-59
2023/09/12 09:23:51;;;;;;;;;;;;;;;21.38;100.00;101270.38;5044266;28;19948;-60
2023/09/12 09:26:16;;;;;;;;;;;;;;;21.67;100.00;101263.81;5044107;28;19909;-59
2023/09/12 09:28:41;;;;;;;;;;;;;;;21.86;100.00;101267.88;5056844;28;19913;-59
2023/09/12 09:31:10;;;;;;;;;;;;;;;21.98;97.63;101266.81;5064008;28;19929;-60
2023/09/12 09:33:36;;;;;;;;;;;;;;;22.03;96.81;101270.28;5063917;28;19913;-60
2023/09/12 09:36:04;;;;;;;;;;;;;;;22.18;96.91;101265.59;5063908;28;19916;-59
2023/09/12 09:38:30;;;;;;;;;;;;;;;22.33;96.84;101264.47;5062658;28;19919;-60
2023/09/12 09:40:55;;;;;;;;;;;;;;;22.49;96.14;101268.59;5061591;28;19976;-60
2023/09/12 09:43:21;;;;;;;;;;;;;;;22.71;93.72;101270.81;5049141;28;19924;-60
2023/09/12 09:45:46;;;;;;;;;;;;;;;22.81;93.90;101274.16;5063837;28;19940;-60
2023/09/12 09:48:19;;;;;;;;;;;;;;;22.87;91.45;101260.72;5063336;28;20169;-60
2023/09/12 09:50:44;;;;;;;;;;;;;;;22.92;91.78;101257.06;5063485;28;20072;-60
2023/09/12 09:53:10;;;;;;;;;;;;;;;23.01;92.01;101256.00;5062439;28;20146;-60
2023/09/12 09:55:35;;;;;;;;;;;;;;;23.16;91.18;101253.94;5063709;28;19947;-60
2023/09/12 09:58:01;;;;;;;;;;;;;;;23.27;92.02;101255.47;5062867;28;20167;-60
2023/09/12 10:00:28;;;;;;;;;;;;;;;23.43;92.31;101258.66;5043601;28;20130;-60
2023/09/12 10:02:53;;;;;;;;;;;;;;;23.60;90.62;101265.34;5059313;28;19917;-60
2023/09/12 10:05:20;;;;;;;;;;;;;;;23.73;92.10;101260.63;5045118;28;19967;-60
2023/09/12 10:07:47;;;;;;;;;;;;;;;23.86;89.24;101275.38;5043443;28;20169;-60
2023/09/12 10:10:12;;;;;;;;;;;;;;;23.86;87.11;101269.16;5043138;28;19913;-60
2023/09/12 10:12:41;;;;;;;;;;;;;;;23.88;88.59;101264.69;5043590;28;19913;-60
2023/09/12 10:15:07;;;;;;;;;;;;;;;24.00;88.54;101263.50;5043293;28;20174;-60
2023/09/12 10:17:36;;;;;;;;;;;;;;;24.10;88.10;101257.91;5043122;28;19909;-60
2023/09/12 10:20:04;;;;;;;;;;;;;;;24.24;89.38;101254.88;5042717;28;19909;-61
2023/09/12 10:22:32;;;;;;;;;;;;;;;24.33;88.61;101250.22;5055912;28;19956;-61
2023/09/12 10:24:58;;;;;;;;;;;;;;;24.34;85.57;101258.16;5063322;28;19909;-61
2023/09/12 10:27:24;;;;;;;;;;;;;;;24.25;86.64;101259.28;5063003;28;19916;-61
2023/09/12 10:29:52;;;;;;;;;;;;;;;24.29;85.83;101252.09;5045256;28;19954;-60
2023/09/12 10:32:18;;;;;;;;;;;;;;;24.27;87.60;101259.25;5062446;28;19952;-61
2023/09/12 10:34:45;;;;;;;;;;;;;;;24.16;85.13;101242.69;5063012;28;19915;-61
2023/09/12 10:37:12;;;;;;;;;;;;;;;24.07;85.77;101243.81;5062924;28;20190;-61
2023/09/12 10:39:37;;;;;;;;;;;;;;;24.18;86.62;101251.53;5063243;28;20003;-61
2023/09/12 10:42:04;;;;;;;;;;;;;;;24.28;86.25;101242.38;5054082;28;20098;-61
2023/09/12 10:44:30;;;;;;;;;;;;;;;24.40;85.04;101244.66;5053949;28;19951;-61
2023/09/12 10:46:57;;;;;;;;;;;;;;;24.57;83.74;101244.22;5062919;28;19980;-61
2023/09/12 10:49:23;;;;;;;;;;;;;;;24.57;84.38;101246.00;5062781;28;20101;-61
2023/09/12 10:51:49;;;;;;;;;;;;;;;24.60;83.26;101243.28;5062222;28;20076;-61
2023/09/12 10:54:23;;;;;;;;;;;;;;;24.83;81.34;101242.63;5062658;28;20143;-61
2023/09/12 10:57:01;;;;;;;;;;;;;;;25.02;81.80;101242.94;5062827;28;19974;-61
2023/09/12 10:59:31;;;;;;;;;;;;;;;25.03;82.63;101243.78;5045949;28;19909;-61
2023/09/12 11:02:16;;;;;;;;;;;;;;;24.88;83.20;101254.00;5048842;28;19913;-61
2023/09/12 11:04:41;;;;;;;;;;;;;;;24.81;83.90;101247.13;5062380;28;20117;-61
2023/09/12 11:07:26;;;;;;;;;;;;;;;24.63;82.23;101248.53;5062827;28;20173;-61
2023/09/12 11:10:11;;;;;;;;;;;;;;;24.55;83.54;101245.16;5053310;28;19982;-61
2023/09/12 11:12:37;;;;;;;;;;;;;;;24.83;82.43;101239.94;5057561;28;19959;-61
2023/09/12 11:15:06;;;;;;;;;;;;;;;25.09;81.79;101231.16;5053870;28;19933;-62
2023/09/12 11:17:36;;;;;;;;;;;;;;;25.33;80.35;101229.56;5056216;28;19916;-61
2023/09/12 11:20:08;;;;;;;;;;;;;;;25.33;80.64;101245.56;5054240;28;19917;-62
2023/09/12 11:22:34;;;;;;;;;;;;;;;25.41;80.73;101236.44;5052883;28;19959;-61
2023/09/12 11:25:05;;;;;;;;;;;;;;;25.64;78.81;101236.53;5055637;28;19920;-62
2023/09/12 11:27:53;;;;;;;;;;;;;;;25.79;79.36;101242.31;5056910;28;20161;-62
2023/09/12 11:30:22;;;;;;;;;;;;;;;25.98;79.13;101243.44;5043559;28;19920;-62
2023/09/12 11:32:50;;;;;;;;;;;;;;;26.13;75.36;101235.84;5057046;28;20177;-64
2023/09/12 11:35:17;;;;;;;;;;;;;;;26.14;74.67;101237.56;5062542;28;19913;-62
2023/09/12 11:37:48;;;;;;;;;;;;;;;26.19;73.68;101235.63;5061179;28;20148;-62
2023/09/12 11:40:14;;;;;;;;;;;;;;;26.30;76.70;101228.09;5054700;28;19913;-62
2023/09/12 11:42:39;;;;;;;;;;;;;;;26.49;74.17;101235.41;5040858;28;19920;-62
2023/09/12 11:45:07;;;;;;;;;;;;;;;26.57;73.37;101236.00;5056296;28;20147;-62
2023/09/12 11:47:33;;;;;;;;;;;;;;;26.33;73.51;101235.09;5064110;28;19962;-63
2023/09/12 11:49:59;;;;;;;;;;;;;;;26.13;73.51;101244.72;5058755;28;19935;-62
2023/09/12 11:52:24;;;;;;;;;;;;;;;26.01;73.46;101237.13;5064256;28;19913;-62
2023/09/12 11:54:49;;;;;;;;;;;;;;;26.01;73.14;101242.47;5064553;28;20066;-62
2023/09/12 11:57:14;;;;;;;;;;;;;;;26.13;72.49;101235.84;5057507;28;20248;-62
2023/09/12 11:59:40;;;;;;;;;;;;;;;26.22;72.10;101231.97;5053333;28;19917;-62
2023/09/12 12:02:06;;;;;;;;;;;;;;;26.40;72.69;101233.94;5062823;28;20043;-63
2023/09/12 12:04:32;;;;;;;;;;;;;;;26.49;71.46;101230.97;5065337;28;19929;-63
2023/09/12 12:06:57;;;;;;;;;;;;;;;26.59;73.90;101225.25;5065655;28;20150;-63
2023/09/12 12:09:22;;;;;;;;;;;;;;;26.73;70.71;101231.00;5046623;28;19913;-62
2023/09/12 12:11:47;;;;;;;;;;;;;;;26.81;69.71;101228.03;5052297;28;19920;-63
2023/09/12 12:14:15;;;;;;;;;;;;;;;26.94;69.66;101229.31;5047242;28;19925;-63
2023/09/12 12:16:40;;;;;;;;;;;;;;;27.13;71.38;101229.47;5054171;28;19913;-64
2023/09/12 12:19:05;;;;;;;;;;;;;;;27.30;69.69;101219.88;5049610;28;19924;-64
2023/09/12 12:21:31;;;;;;;;;;;;;;;27.44;69.87;101222.03;5063250;28;20188;-63
2023/09/12 12:24:00;;;;;;;;;;;;;;;27.57;69.66;101226.78;5060162;28;19972;-63
2023/09/12 12:26:26;;;;;;;;;;;;;;;27.70;65.94;101228.97;5063047;28;19940;-64
2023/09/12 12:28:51;;;;;;;;;;;;;;;27.84;67.77;101231.06;5065000;28;19952;-63